sensor_id;sensor_type;location;lat;lon;timestamp;P1;durP1;ratioP1;P2;durP2;ratioP2
37805;SDS011;25082;50.870;0.022;2023-07-24T00:01:19;7.28;;;2.20;;
37805;SDS011;25082;50.870;0.022;2023-07-24T00:03:45;3.78;;;1.98;;
37805;SDS011;25082;50.870;0.022;2023-07-24T00:06:11;6.07;;;2.45;;
37805;SDS011;25082;50.870;0.022;2023-07-24T00:08:37;4.85;;;2.42;;
37805;SDS011;25082;50.870;0.022;2023-07-24T00:11:06;4.22;;;2.60;;
37805;SDS011;25082;50.870;0.022;2023-07-24T00:13:32;3.60;;;2.45;;
37805;SDS011;25082;50.870;0.022;2023-07-24T00:15:58;5.75;;;2.67;;
37805;SDS011;25082;50.870;0.022;2023-07-24T00:18:24;4.75;;;2.60;;
37805;SDS011;25082;50.870;0.022;2023-07-24T00:20:49;7.63;;;3.13;;
37805;SDS011;25082;50.870;0.022;2023-07-24T00:23:15;4.82;;;2.70;;
37805;SDS011;25082;50.870;0.022;2023-07-24T00:25:41;4.03;;;2.13;;
37805;SDS011;25082;50.870;0.022;2023-07-24T00:28:07;2.90;;;2.00;;
37805;SDS011;25082;50.870;0.022;2023-07-24T00:30:32;3.75;;;2.42;;
37805;SDS011;25082;50.870;0.022;2023-07-24T00:32:58;3.72;;;2.40;;
37805;SDS011;25082;50.870;0.022;2023-07-24T00:35:24;4.28;;;2.53;;
37805;SDS011;25082;50.870;0.022;2023-07-24T00:37:51;6.10;;;2.75;;
37805;SDS011;25082;50.870;0.022;2023-07-24T00:40:17;4.07;;;2.25;;
37805;SDS011;25082;50.870;0.022;2023-07-24T00:42:46;4.15;;;2.42;;
37805;SDS011;25082;50.870;0.022;2023-07-24T00:45:13;3.63;;;2.38;;
37805;SDS011;25082;50.870;0.022;2023-07-24T00:47:38;3.70;;;2.35;;
37805;SDS011;25082;50.870;0.022;2023-07-24T00:50:05;3.38;;;2.22;;
37805;SDS011;25082;50.870;0.022;2023-07-24T00:52:32;4.60;;;2.28;;
37805;SDS011;25082;50.870;0.022;2023-07-24T00:54:58;3.95;;;2.30;;
37805;SDS011;25082;50.870;0.022;2023-07-24T00:57:24;4.53;;;2.40;;
37805;SDS011;25082;50.870;0.022;2023-07-24T00:59:50;5.10;;;2.45;;
37805;SDS011;25082;50.870;0.022;2023-07-24T01:02:15;3.78;;;2.10;;
37805;SDS011;25082;50.870;0.022;2023-07-24T01:04:41;5.32;;;2.20;;
37805;SDS011;25082;50.870;0.022;2023-07-24T01:07:07;5.57;;;2.33;;
37805;SDS011;25082;50.870;0.022;2023-07-24T01:09:33;5.43;;;2.25;;
37805;SDS011;25082;50.870;0.022;2023-07-24T01:12:10;5.78;;;1.92;;
37805;SDS011;25082;50.870;0.022;2023-07-24T01:14:49;4.65;;;2.30;;
37805;SDS011;25082;50.870;0.022;2023-07-24T01:17:23;6.72;;;2.78;;
37805;SDS011;25082;50.870;0.022;2023-07-24T01:19:54;4.65;;;2.25;;
37805;SDS011;25082;50.870;0.022;2023-07-24T01:25:10;3.83;;;1.67;;
37805;SDS011;25082;50.870;0.022;2023-07-24T01:27:52;4.53;;;1.92;;
37805;SDS011;25082;50.870;0.022;2023-07-24T01:30:18;3.05;;;2.10;;
37805;SDS011;25082;50.870;0.022;2023-07-24T01:32:44;4.05;;;2.15;;
37805;SDS011;25082;50.870;0.022;2023-07-24T01:35:10;4.35;;;2.13;;
37805;SDS011;25082;50.870;0.022;2023-07-24T01:37:37;3.47;;;2.00;;
37805;SDS011;25082;50.870;0.022;2023-07-24T01:40:06;3.85;;;1.85;;
37805;SDS011;25082;50.870;0.022;2023-07-24T01:42:33;4.38;;;2.40;;
37805;SDS011;25082;50.870;0.022;2023-07-24T01:45:00;4.55;;;2.70;;
37805;SDS011;25082;50.870;0.022;2023-07-24T01:47:27;3.95;;;2.20;;
37805;SDS011;25082;50.870;0.022;2023-07-24T01:49:52;3.25;;;1.88;;
37805;SDS011;25082;50.870;0.022;2023-07-24T01:52:19;3.83;;;2.05;;
37805;SDS011;25082;50.870;0.022;2023-07-24T01:54:45;4.55;;;2.33;;
37805;SDS011;25082;50.870;0.022;2023-07-24T01:57:11;2.78;;;1.75;;
37805;SDS011;25082;50.870;0.022;2023-07-24T01:59:36;3.22;;;1.70;;
37805;SDS011;25082;50.870;0.022;2023-07-24T02:02:02;2.05;;;1.45;;
37805;SDS011;25082;50.870;0.022;2023-07-24T02:04:28;2.47;;;1.52;;
37805;SDS011;25082;50.870;0.022;2023-07-24T02:06:54;4.13;;;2.20;;
37805;SDS011;25082;50.870;0.022;2023-07-24T02:09:19;3.05;;;2.00;;
37805;SDS011;25082;50.870;0.022;2023-07-24T02:11:45;3.50;;;1.80;;
37805;SDS011;25082;50.870;0.022;2023-07-24T02:14:11;4.15;;;2.00;;
37805;SDS011;25082;50.870;0.022;2023-07-24T02:16:38;4.15;;;2.13;;
37805;SDS011;25082;50.870;0.022;2023-07-24T02:19:04;6.05;;;2.17;;
37805;SDS011;25082;50.870;0.022;2023-07-24T02:21:30;3.50;;;1.80;;
37805;SDS011;25082;50.870;0.022;2023-07-24T02:23:57;2.00;;;1.63;;
37805;SDS011;25082;50.870;0.022;2023-07-24T02:26:22;3.97;;;1.77;;
37805;SDS011;25082;50.870;0.022;2023-07-24T02:28:48;3.92;;;2.25;;
37805;SDS011;25082;50.870;0.022;2023-07-24T02:31:14;3.53;;;1.85;;
37805;SDS011;25082;50.870;0.022;2023-07-24T02:33:39;3.75;;;2.08;;
37805;SDS011;25082;50.870;0.022;2023-07-24T02:36:08;3.60;;;2.00;;
37805;SDS011;25082;50.870;0.022;2023-07-24T02:38:34;4.03;;;1.92;;
37805;SDS011;25082;50.870;0.022;2023-07-24T02:40:59;4.60;;;2.13;;
37805;SDS011;25082;50.870;0.022;2023-07-24T02:43:25;2.63;;;1.63;;
37805;SDS011;25082;50.870;0.022;2023-07-24T02:45:51;3.35;;;2.00;;
37805;SDS011;25082;50.870;0.022;2023-07-24T02:48:17;3.85;;;2.25;;
37805;SDS011;25082;50.870;0.022;2023-07-24T02:50:42;2.78;;;1.70;;
37805;SDS011;25082;50.870;0.022;2023-07-24T02:53:08;3.05;;;2.08;;
37805;SDS011;25082;50.870;0.022;2023-07-24T02:55:34;3.65;;;1.83;;
37805;SDS011;25082;50.870;0.022;2023-07-24T02:57:59;6.03;;;1.92;;
37805;SDS011;25082;50.870;0.022;2023-07-24T03:00:25;3.10;;;2.00;;
37805;SDS011;25082;50.870;0.022;2023-07-24T03:02:52;2.55;;;1.60;;
37805;SDS011;25082;50.870;0.022;2023-07-24T03:05:18;4.70;;;1.98;;
37805;SDS011;25082;50.870;0.022;2023-07-24T03:07:43;3.38;;;1.60;;
37805;SDS011;25082;50.870;0.022;2023-07-24T03:10:09;3.28;;;1.80;;
37805;SDS011;25082;50.870;0.022;2023-07-24T03:12:35;2.97;;;1.85;;
37805;SDS011;25082;50.870;0.022;2023-07-24T03:15:01;2.70;;;1.63;;
37805;SDS011;25082;50.870;0.022;2023-07-24T03:17:26;4.60;;;1.63;;
37805;SDS011;25082;50.870;0.022;2023-07-24T03:19:53;4.35;;;1.88;;
37805;SDS011;25082;50.870;0.022;2023-07-24T03:22:19;4.03;;;1.92;;
37805;SDS011;25082;50.870;0.022;2023-07-24T03:24:45;3.17;;;1.63;;
37805;SDS011;25082;50.870;0.022;2023-07-24T03:27:10;3.60;;;1.98;;
37805;SDS011;25082;50.870;0.022;2023-07-24T03:29:37;4.07;;;1.77;;
37805;SDS011;25082;50.870;0.022;2023-07-24T03:32:02;4.13;;;1.65;;
37805;SDS011;25082;50.870;0.022;2023-07-24T03:34:28;3.25;;;1.80;;
37805;SDS011;25082;50.870;0.022;2023-07-24T03:36:54;3.40;;;1.65;;
37805;SDS011;25082;50.870;0.022;2023-07-24T03:39:20;2.88;;;1.90;;
37805;SDS011;25082;50.870;0.022;2023-07-24T03:41:46;2.75;;;1.77;;
37805;SDS011;25082;50.870;0.022;2023-07-24T03:44:11;2.63;;;1.63;;
37805;SDS011;25082;50.870;0.022;2023-07-24T03:46:37;3.05;;;1.77;;
37805;SDS011;25082;50.870;0.022;2023-07-24T03:49:03;3.05;;;1.90;;
37805;SDS011;25082;50.870;0.022;2023-07-24T03:51:29;2.67;;;1.63;;
37805;SDS011;25082;50.870;0.022;2023-07-24T03:53:58;3.13;;;1.83;;
37805;SDS011;25082;50.870;0.022;2023-07-24T03:56:24;3.42;;;2.05;;
37805;SDS011;25082;50.870;0.022;2023-07-24T03:58:49;3.50;;;1.40;;
37805;SDS011;25082;50.870;0.022;2023-07-24T04:01:15;5.18;;;1.88;;
37805;SDS011;25082;50.870;0.022;2023-07-24T04:03:41;3.08;;;1.55;;
37805;SDS011;25082;50.870;0.022;2023-07-24T04:06:06;3.13;;;1.65;;
37805;SDS011;25082;50.870;0.022;2023-07-24T04:08:32;5.00;;;2.00;;
37805;SDS011;25082;50.870;0.022;2023-07-24T04:10:58;1.50;;;1.08;;
37805;SDS011;25082;50.870;0.022;2023-07-24T04:13:24;2.10;;;1.67;;
37805;SDS011;25082;50.870;0.022;2023-07-24T04:15:49;4.07;;;1.67;;
37805;SDS011;25082;50.870;0.022;2023-07-24T04:18:15;1.52;;;1.20;;
37805;SDS011;25082;50.870;0.022;2023-07-24T04:20:41;2.70;;;1.60;;
37805;SDS011;25082;50.870;0.022;2023-07-24T04:23:06;4.10;;;1.95;;
37805;SDS011;25082;50.870;0.022;2023-07-24T04:25:32;2.22;;;1.48;;
37805;SDS011;25082;50.870;0.022;2023-07-24T04:27:58;2.65;;;1.05;;
37805;SDS011;25082;50.870;0.022;2023-07-24T04:30:24;3.63;;;1.65;;
37805;SDS011;25082;50.870;0.022;2023-07-24T04:32:49;3.97;;;1.77;;
37805;SDS011;25082;50.870;0.022;2023-07-24T04:35:15;2.13;;;1.42;;
37805;SDS011;25082;50.870;0.022;2023-07-24T04:37:41;3.50;;;1.70;;
37805;SDS011;25082;50.870;0.022;2023-07-24T04:40:07;4.13;;;1.75;;
37805;SDS011;25082;50.870;0.022;2023-07-24T04:42:33;2.17;;;1.27;;
37805;SDS011;25082;50.870;0.022;2023-07-24T04:44:58;2.35;;;1.33;;
37805;SDS011;25082;50.870;0.022;2023-07-24T04:47:24;3.10;;;1.42;;
37805;SDS011;25082;50.870;0.022;2023-07-24T04:49:50;2.72;;;1.70;;
37805;SDS011;25082;50.870;0.022;2023-07-24T04:52:16;3.15;;;1.50;;
37805;SDS011;25082;50.870;0.022;2023-07-24T04:54:41;2.78;;;1.70;;
37805;SDS011;25082;50.870;0.022;2023-07-24T04:57:07;2.08;;;1.50;;
37805;SDS011;25082;50.870;0.022;2023-07-24T04:59:33;2.72;;;1.70;;
37805;SDS011;25082;50.870;0.022;2023-07-24T05:01:58;2.78;;;1.80;;
37805;SDS011;25082;50.870;0.022;2023-07-24T05:04:24;2.95;;;1.30;;
37805;SDS011;25082;50.870;0.022;2023-07-24T05:06:50;3.22;;;1.63;;
37805;SDS011;25082;50.870;0.022;2023-07-24T05:09:15;1.48;;;1.20;;
37805;SDS011;25082;50.870;0.022;2023-07-24T05:11:41;2.83;;;1.25;;
37805;SDS011;25082;50.870;0.022;2023-07-24T05:14:09;1.95;;;1.25;;
37805;SDS011;25082;50.870;0.022;2023-07-24T05:16:35;2.17;;;1.40;;
37805;SDS011;25082;50.870;0.022;2023-07-24T05:19:01;1.83;;;1.65;;
37805;SDS011;25082;50.870;0.022;2023-07-24T05:21:27;3.70;;;1.80;;
37805;SDS011;25082;50.870;0.022;2023-07-24T05:23:52;2.65;;;1.33;;
37805;SDS011;25082;50.870;0.022;2023-07-24T05:26:18;1.45;;;0.98;;
37805;SDS011;25082;50.870;0.022;2023-07-24T05:28:44;4.50;;;1.33;;
37805;SDS011;25082;50.870;0.022;2023-07-24T05:31:10;4.22;;;1.63;;
37805;SDS011;25082;50.870;0.022;2023-07-24T05:33:36;4.50;;;1.65;;
37805;SDS011;25082;50.870;0.022;2023-07-24T05:36:02;2.05;;;1.55;;
37805;SDS011;25082;50.870;0.022;2023-07-24T05:38:29;1.63;;;1.33;;
37805;SDS011;25082;50.870;0.022;2023-07-24T05:40:58;3.15;;;1.55;;
37805;SDS011;25082;50.870;0.022;2023-07-24T05:43:25;3.22;;;1.20;;
37805;SDS011;25082;50.870;0.022;2023-07-24T05:45:52;4.10;;;1.40;;
37805;SDS011;25082;50.870;0.022;2023-07-24T05:48:19;3.28;;;1.30;;
37805;SDS011;25082;50.870;0.022;2023-07-24T05:50:45;2.33;;;1.33;;
37805;SDS011;25082;50.870;0.022;2023-07-24T05:53:11;1.92;;;1.42;;
37805;SDS011;25082;50.870;0.022;2023-07-24T05:55:37;4.05;;;1.33;;
37805;SDS011;25082;50.870;0.022;2023-07-24T05:58:02;2.03;;;1.20;;
37805;SDS011;25082;50.870;0.022;2023-07-24T06:00:28;2.08;;;1.23;;
37805;SDS011;25082;50.870;0.022;2023-07-24T06:02:54;2.50;;;1.40;;
37805;SDS011;25082;50.870;0.022;2023-07-24T06:05:20;2.90;;;1.15;;
37805;SDS011;25082;50.870;0.022;2023-07-24T06:07:48;2.40;;;1.30;;
37805;SDS011;25082;50.870;0.022;2023-07-24T06:10:14;1.98;;;1.30;;
37805;SDS011;25082;50.870;0.022;2023-07-24T06:12:40;3.20;;;1.52;;
37805;SDS011;25082;50.870;0.022;2023-07-24T06:15:06;1.60;;;1.17;;
37805;SDS011;25082;50.870;0.022;2023-07-24T06:17:35;2.08;;;1.30;;
37805;SDS011;25082;50.870;0.022;2023-07-24T06:20:01;2.03;;;1.20;;
37805;SDS011;25082;50.870;0.022;2023-07-24T06:22:26;2.88;;;1.33;;
37805;SDS011;25082;50.870;0.022;2023-07-24T06:24:52;2.67;;;1.30;;
37805;SDS011;25082;50.870;0.022;2023-07-24T06:27:18;2.88;;;1.35;;
37805;SDS011;25082;50.870;0.022;2023-07-24T06:29:44;1.80;;;1.40;;
37805;SDS011;25082;50.870;0.022;2023-07-24T06:32:12;3.42;;;1.20;;
37805;SDS011;25082;50.870;0.022;2023-07-24T06:34:37;2.03;;;1.33;;
37805;SDS011;25082;50.870;0.022;2023-07-24T06:37:03;2.65;;;1.13;;
37805;SDS011;25082;50.870;0.022;2023-07-24T06:39:29;1.23;;;1.13;;
37805;SDS011;25082;50.870;0.022;2023-07-24T06:41:55;2.90;;;1.35;;
37805;SDS011;25082;50.870;0.022;2023-07-24T06:44:21;2.13;;;1.42;;
37805;SDS011;25082;50.870;0.022;2023-07-24T06:46:47;2.75;;;1.38;;
37805;SDS011;25082;50.870;0.022;2023-07-24T06:49:13;1.40;;;1.10;;
37805;SDS011;25082;50.870;0.022;2023-07-24T06:51:38;1.50;;;1.20;;
37805;SDS011;25082;50.870;0.022;2023-07-24T06:54:05;2.03;;;1.30;;
37805;SDS011;25082;50.870;0.022;2023-07-24T06:56:31;1.90;;;1.33;;
37805;SDS011;25082;50.870;0.022;2023-07-24T06:58:56;2.25;;;1.35;;
37805;SDS011;25082;50.870;0.022;2023-07-24T07:01:22;3.53;;;1.10;;
37805;SDS011;25082;50.870;0.022;2023-07-24T07:03:48;2.50;;;1.08;;
37805;SDS011;25082;50.870;0.022;2023-07-24T07:06:14;1.48;;;1.13;;
37805;SDS011;25082;50.870;0.022;2023-07-24T07:08:39;3.03;;;1.60;;
37805;SDS011;25082;50.870;0.022;2023-07-24T07:11:05;3.88;;;1.50;;
37805;SDS011;25082;50.870;0.022;2023-07-24T07:13:31;2.50;;;1.30;;
37805;SDS011;25082;50.870;0.022;2023-07-24T07:15:57;2.67;;;1.33;;
37805;SDS011;25082;50.870;0.022;2023-07-24T07:18:23;2.15;;;1.05;;
37805;SDS011;25082;50.870;0.022;2023-07-24T07:20:49;1.58;;;1.05;;
37805;SDS011;25082;50.870;0.022;2023-07-24T07:23:19;4.15;;;1.40;;
37805;SDS011;25082;50.870;0.022;2023-07-24T07:25:45;2.85;;;1.52;;
37805;SDS011;25082;50.870;0.022;2023-07-24T07:28:14;3.65;;;1.27;;
37805;SDS011;25082;50.870;0.022;2023-07-24T07:30:41;1.45;;;1.33;;
37805;SDS011;25082;50.870;0.022;2023-07-24T07:33:07;2.60;;;1.23;;
37805;SDS011;25082;50.870;0.022;2023-07-24T07:35:34;2.72;;;1.40;;
37805;SDS011;25082;50.870;0.022;2023-07-24T07:38:00;2.92;;;1.40;;
37805;SDS011;25082;50.870;0.022;2023-07-24T07:40:26;1.48;;;1.15;;
37805;SDS011;25082;50.870;0.022;2023-07-24T07:42:55;2.50;;;1.35;;
37805;SDS011;25082;50.870;0.022;2023-07-24T07:45:22;3.95;;;1.45;;
37805;SDS011;25082;50.870;0.022;2023-07-24T07:47:48;2.63;;;1.55;;
37805;SDS011;25082;50.870;0.022;2023-07-24T07:50:14;2.05;;;1.40;;
37805;SDS011;25082;50.870;0.022;2023-07-24T07:52:40;1.33;;;1.10;;
37805;SDS011;25082;50.870;0.022;2023-07-24T07:55:06;2.42;;;1.13;;
37805;SDS011;25082;50.870;0.022;2023-07-24T07:57:36;1.77;;;1.30;;
37805;SDS011;25082;50.870;0.022;2023-07-24T08:00:02;3.97;;;1.60;;
37805;SDS011;25082;50.870;0.022;2023-07-24T08:02:29;1.90;;;1.33;;
37805;SDS011;25082;50.870;0.022;2023-07-24T08:04:57;3.10;;;1.42;;
37805;SDS011;25082;50.870;0.022;2023-07-24T08:07:22;2.05;;;1.40;;
37805;SDS011;25082;50.870;0.022;2023-07-24T08:09:48;1.63;;;1.15;;
37805;SDS011;25082;50.870;0.022;2023-07-24T08:12:14;4.35;;;1.58;;
37805;SDS011;25082;50.870;0.022;2023-07-24T08:14:40;2.70;;;1.65;;
37805;SDS011;25082;50.870;0.022;2023-07-24T08:17:05;1.75;;;1.40;;
37805;SDS011;25082;50.870;0.022;2023-07-24T08:19:31;1.85;;;1.20;;
37805;SDS011;25082;50.870;0.022;2023-07-24T08:21:57;2.20;;;1.27;;
37805;SDS011;25082;50.870;0.022;2023-07-24T08:24:22;1.67;;;1.20;;
37805;SDS011;25082;50.870;0.022;2023-07-24T08:26:48;1.98;;;1.38;;
37805;SDS011;25082;50.870;0.022;2023-07-24T08:29:14;2.00;;;1.15;;
37805;SDS011;25082;50.870;0.022;2023-07-24T08:31:40;3.22;;;1.10;;
37805;SDS011;25082;50.870;0.022;2023-07-24T08:34:06;3.63;;;1.60;;
37805;SDS011;25082;50.870;0.022;2023-07-24T08:36:31;1.23;;;1.00;;
37805;SDS011;25082;50.870;0.022;2023-07-24T08:38:57;2.65;;;1.13;;
37805;SDS011;25082;50.870;0.022;2023-07-24T08:41:23;1.65;;;1.20;;
37805;SDS011;25082;50.870;0.022;2023-07-24T08:43:49;2.42;;;1.35;;
37805;SDS011;25082;50.870;0.022;2023-07-24T08:46:17;1.75;;;1.10;;
37805;SDS011;25082;50.870;0.022;2023-07-24T08:48:43;3.05;;;1.50;;
37805;SDS011;25082;50.870;0.022;2023-07-24T08:51:12;3.60;;;1.48;;
37805;SDS011;25082;50.870;0.022;2023-07-24T08:53:40;7.45;;;1.58;;
37805;SDS011;25082;50.870;0.022;2023-07-24T08:56:07;3.17;;;1.80;;
37805;SDS011;25082;50.870;0.022;2023-07-24T08:58:35;8.82;;;2.38;;
37805;SDS011;25082;50.870;0.022;2023-07-24T09:01:02;5.63;;;2.35;;
37805;SDS011;25082;50.870;0.022;2023-07-24T09:03:28;4.05;;;1.95;;
37805;SDS011;25082;50.870;0.022;2023-07-24T09:05:55;4.85;;;2.17;;
37805;SDS011;25082;50.870;0.022;2023-07-24T09:08:37;5.55;;;2.65;;
37805;SDS011;25082;50.870;0.022;2023-07-24T09:11:07;2.92;;;2.38;;
37805;SDS011;25082;50.870;0.022;2023-07-24T09:13:38;4.85;;;2.00;;
37805;SDS011;25082;50.870;0.022;2023-07-24T09:16:07;9.45;;;2.35;;
37805;SDS011;25082;50.870;0.022;2023-07-24T09:18:40;3.58;;;1.98;;
37805;SDS011;25082;50.870;0.022;2023-07-24T09:21:07;5.78;;;1.83;;
37805;SDS011;25082;50.870;0.022;2023-07-24T09:23:33;3.40;;;1.98;;
37805;SDS011;25082;50.870;0.022;2023-07-24T09:26:04;5.78;;;2.05;;
37805;SDS011;25082;50.870;0.022;2023-07-24T09:28:31;6.18;;;2.30;;
37805;SDS011;25082;50.870;0.022;2023-07-24T09:30:59;4.13;;;2.15;;
37805;SDS011;25082;50.870;0.022;2023-07-24T09:33:34;5.30;;;2.00;;
37805;SDS011;25082;50.870;0.022;2023-07-24T09:36:05;2.33;;;1.75;;
37805;SDS011;25082;50.870;0.022;2023-07-24T09:38:34;2.53;;;1.85;;
37805;SDS011;25082;50.870;0.022;2023-07-24T09:41:04;5.32;;;2.03;;
37805;SDS011;25082;50.870;0.022;2023-07-24T09:43:31;7.97;;;2.35;;
37805;SDS011;25082;50.870;0.022;2023-07-24T09:45:57;5.55;;;2.40;;
37805;SDS011;25082;50.870;0.022;2023-07-24T09:48:24;1.65;;;1.55;;
37805;SDS011;25082;50.870;0.022;2023-07-24T09:50:55;5.65;;;2.25;;
37805;SDS011;25082;50.870;0.022;2023-07-24T09:56:09;10.15;;;2.22;;
37805;SDS011;25082;50.870;0.022;2023-07-24T09:58:39;3.90;;;2.08;;
37805;SDS011;25082;50.870;0.022;2023-07-24T10:01:08;4.72;;;2.03;;
37805;SDS011;25082;50.870;0.022;2023-07-24T10:03:37;5.38;;;2.10;;
37805;SDS011;25082;50.870;0.022;2023-07-24T10:06:04;4.47;;;2.10;;
37805;SDS011;25082;50.870;0.022;2023-07-24T10:08:30;3.50;;;1.85;;
37805;SDS011;25082;50.870;0.022;2023-07-24T10:10:59;4.35;;;2.00;;
37805;SDS011;25082;50.870;0.022;2023-07-24T10:13:26;5.38;;;1.65;;
37805;SDS011;25082;50.870;0.022;2023-07-24T10:15:52;4.22;;;2.10;;
37805;SDS011;25082;50.870;0.022;2023-07-24T10:18:25;6.47;;;1.95;;
37805;SDS011;25082;50.870;0.022;2023-07-24T10:20:59;4.03;;;1.95;;
37805;SDS011;25082;50.870;0.022;2023-07-24T10:23:29;3.85;;;1.80;;
37805;SDS011;25082;50.870;0.022;2023-07-24T10:25:55;3.28;;;2.08;;
37805;SDS011;25082;50.870;0.022;2023-07-24T10:28:33;10.32;;;2.25;;
37805;SDS011;25082;50.870;0.022;2023-07-24T10:31:03;3.55;;;1.83;;
37805;SDS011;25082;50.870;0.022;2023-07-24T10:33:46;3.30;;;1.85;;
37805;SDS011;25082;50.870;0.022;2023-07-24T10:36:16;2.75;;;1.90;;
37805;SDS011;25082;50.870;0.022;2023-07-24T10:38:44;2.63;;;1.83;;
37805;SDS011;25082;50.870;0.022;2023-07-24T10:41:11;4.68;;;1.70;;
37805;SDS011;25082;50.870;0.022;2023-07-24T10:43:46;2.10;;;1.90;;
37805;SDS011;25082;50.870;0.022;2023-07-24T10:46:14;3.28;;;1.58;;
37805;SDS011;25082;50.870;0.022;2023-07-24T10:48:44;3.90;;;1.98;;
37805;SDS011;25082;50.870;0.022;2023-07-24T10:51:14;4.07;;;1.90;;
37805;SDS011;25082;50.870;0.022;2023-07-24T10:53:47;5.55;;;2.03;;
37805;SDS011;25082;50.870;0.022;2023-07-24T10:56:14;1.75;;;1.58;;
37805;SDS011;25082;50.870;0.022;2023-07-24T10:58:41;2.20;;;1.73;;
37805;SDS011;25082;50.870;0.022;2023-07-24T11:01:07;4.30;;;2.10;;
37805;SDS011;25082;50.870;0.022;2023-07-24T11:03:36;4.90;;;2.17;;
37805;SDS011;25082;50.870;0.022;2023-07-24T11:06:02;4.65;;;1.77;;
37805;SDS011;25082;50.870;0.022;2023-07-24T11:08:29;3.33;;;1.73;;
37805;SDS011;25082;50.870;0.022;2023-07-24T11:10:56;5.03;;;1.80;;
37805;SDS011;25082;50.870;0.022;2023-07-24T11:13:24;1.75;;;1.38;;
37805;SDS011;25082;50.870;0.022;2023-07-24T11:15:51;2.70;;;1.60;;
37805;SDS011;25082;50.870;0.022;2023-07-24T11:18:19;3.80;;;1.95;;
37805;SDS011;25082;50.870;0.022;2023-07-24T11:20:51;2.75;;;1.70;;
37805;SDS011;25082;50.870;0.022;2023-07-24T11:23:21;3.53;;;1.58;;
37805;SDS011;25082;50.870;0.022;2023-07-24T11:25:49;3.05;;;1.92;;
37805;SDS011;25082;50.870;0.022;2023-07-24T11:28:16;2.42;;;1.67;;
37805;SDS011;25082;50.870;0.022;2023-07-24T11:30:43;2.33;;;1.70;;
37805;SDS011;25082;50.870;0.022;2023-07-24T11:33:09;3.20;;;1.85;;
37805;SDS011;25082;50.870;0.022;2023-07-24T11:35:40;3.72;;;1.70;;
37805;SDS011;25082;50.870;0.022;2023-07-24T11:38:09;4.45;;;2.15;;
37805;SDS011;25082;50.870;0.022;2023-07-24T11:40:42;8.57;;;2.13;;
37805;SDS011;25082;50.870;0.022;2023-07-24T11:43:18;9.38;;;1.70;;
37805;SDS011;25082;50.870;0.022;2023-07-24T11:45:46;3.58;;;1.92;;
37805;SDS011;25082;50.870;0.022;2023-07-24T11:48:21;4.05;;;2.00;;
37805;SDS011;25082;50.870;0.022;2023-07-24T11:50:52;2.97;;;1.75;;
37805;SDS011;25082;50.870;0.022;2023-07-24T11:53:23;6.25;;;2.10;;
37805;SDS011;25082;50.870;0.022;2023-07-24T11:55:52;2.85;;;1.67;;
37805;SDS011;25082;50.870;0.022;2023-07-24T11:58:20;9.10;;;1.70;;
37805;SDS011;25082;50.870;0.022;2023-07-24T12:00:47;3.08;;;1.30;;
37805;SDS011;25082;50.870;0.022;2023-07-24T12:03:18;2.63;;;1.63;;
37805;SDS011;25082;50.870;0.022;2023-07-24T12:05:45;4.35;;;1.80;;
37805;SDS011;25082;50.870;0.022;2023-07-24T12:08:11;4.60;;;1.50;;
37805;SDS011;25082;50.870;0.022;2023-07-24T12:10:39;6.07;;;2.10;;
37805;SDS011;25082;50.870;0.022;2023-07-24T12:13:06;2.72;;;1.60;;
37805;SDS011;25082;50.870;0.022;2023-07-24T12:15:32;4.53;;;2.05;;
37805;SDS011;25082;50.870;0.022;2023-07-24T12:18:02;2.90;;;1.73;;
37805;SDS011;25082;50.870;0.022;2023-07-24T12:20:29;2.90;;;1.75;;
37805;SDS011;25082;50.870;0.022;2023-07-24T12:22:55;4.35;;;1.80;;
37805;SDS011;25082;50.870;0.022;2023-07-24T12:25:21;5.47;;;2.08;;
37805;SDS011;25082;50.870;0.022;2023-07-24T12:27:47;2.20;;;1.88;;
37805;SDS011;25082;50.870;0.022;2023-07-24T12:30:14;2.28;;;1.55;;
37805;SDS011;25082;50.870;0.022;2023-07-24T12:32:39;4.13;;;1.92;;
37805;SDS011;25082;50.870;0.022;2023-07-24T12:35:06;3.67;;;2.33;;
37805;SDS011;25082;50.870;0.022;2023-07-24T12:37:33;5.22;;;1.92;;
37805;SDS011;25082;50.870;0.022;2023-07-24T12:39:59;4.28;;;1.70;;
37805;SDS011;25082;50.870;0.022;2023-07-24T12:42:24;5.40;;;2.03;;
37805;SDS011;25082;50.870;0.022;2023-07-24T12:44:51;4.57;;;1.65;;
37805;SDS011;25082;50.870;0.022;2023-07-24T12:47:17;5.07;;;1.90;;
37805;SDS011;25082;50.870;0.022;2023-07-24T12:49:43;4.57;;;1.65;;
37805;SDS011;25082;50.870;0.022;2023-07-24T12:52:09;3.67;;;2.13;;
37805;SDS011;25082;50.870;0.022;2023-07-24T12:54:36;3.92;;;1.88;;
37805;SDS011;25082;50.870;0.022;2023-07-24T12:57:01;4.43;;;1.58;;
37805;SDS011;25082;50.870;0.022;2023-07-24T12:59:27;6.03;;;2.33;;
37805;SDS011;25082;50.870;0.022;2023-07-24T13:01:53;2.83;;;1.55;;
37805;SDS011;25082;50.870;0.022;2023-07-24T13:04:19;4.50;;;2.10;;
37805;SDS011;25082;50.870;0.022;2023-07-24T13:06:46;3.13;;;1.40;;
37805;SDS011;25082;50.870;0.022;2023-07-24T13:09:11;2.33;;;1.60;;
37805;SDS011;25082;50.870;0.022;2023-07-24T13:11:37;3.15;;;2.00;;
37805;SDS011;25082;50.870;0.022;2023-07-24T13:14:03;2.80;;;1.75;;
37805;SDS011;25082;50.870;0.022;2023-07-24T13:16:28;3.97;;;1.70;;
37805;SDS011;25082;50.870;0.022;2023-07-24T13:18:54;3.10;;;1.63;;
37805;SDS011;25082;50.870;0.022;2023-07-24T13:21:20;2.70;;;1.92;;
37805;SDS011;25082;50.870;0.022;2023-07-24T13:23:46;4.22;;;2.05;;
37805;SDS011;25082;50.870;0.022;2023-07-24T13:26:12;5.65;;;2.63;;
37805;SDS011;25082;50.870;0.022;2023-07-24T13:28:39;5.15;;;2.35;;
37805;SDS011;25082;50.870;0.022;2023-07-24T13:31:15;6.65;;;2.50;;
37805;SDS011;25082;50.870;0.022;2023-07-24T13:33:42;4.97;;;2.22;;
37805;SDS011;25082;50.870;0.022;2023-07-24T13:36:08;10.85;;;2.65;;
37805;SDS011;25082;50.870;0.022;2023-07-24T13:38:34;3.30;;;1.90;;
37805;SDS011;25082;50.870;0.022;2023-07-24T13:41:00;8.75;;;2.50;;
37805;SDS011;25082;50.870;0.022;2023-07-24T13:43:26;2.30;;;2.08;;
37805;SDS011;25082;50.870;0.022;2023-07-24T13:45:52;3.83;;;1.90;;
37805;SDS011;25082;50.870;0.022;2023-07-24T13:48:18;4.70;;;1.92;;
37805;SDS011;25082;50.870;0.022;2023-07-24T13:50:44;2.90;;;1.80;;
37805;SDS011;25082;50.870;0.022;2023-07-24T13:53:10;3.42;;;1.83;;
37805;SDS011;25082;50.870;0.022;2023-07-24T13:55:37;2.20;;;1.60;;
37805;SDS011;25082;50.870;0.022;2023-07-24T13:58:03;3.65;;;1.83;;
37805;SDS011;25082;50.870;0.022;2023-07-24T14:00:28;2.75;;;1.58;;
37805;SDS011;25082;50.870;0.022;2023-07-24T14:02:54;3.40;;;1.60;;
37805;SDS011;25082;50.870;0.022;2023-07-24T14:05:20;4.03;;;2.05;;
37805;SDS011;25082;50.870;0.022;2023-07-24T14:07:45;5.93;;;1.88;;
37805;SDS011;25082;50.870;0.022;2023-07-24T14:10:11;4.38;;;1.50;;
37805;SDS011;25082;50.870;0.022;2023-07-24T14:12:37;3.58;;;1.75;;
37805;SDS011;25082;50.870;0.022;2023-07-24T14:15:03;5.15;;;1.65;;
37805;SDS011;25082;50.870;0.022;2023-07-24T14:17:29;4.28;;;1.88;;
37805;SDS011;25082;50.870;0.022;2023-07-24T14:19:55;3.35;;;1.52;;
37805;SDS011;25082;50.870;0.022;2023-07-24T14:22:21;4.43;;;1.40;;
37805;SDS011;25082;50.870;0.022;2023-07-24T14:24:47;10.93;;;2.25;;
37805;SDS011;25082;50.870;0.022;2023-07-24T14:27:15;4.70;;;1.77;;
37805;SDS011;25082;50.870;0.022;2023-07-24T14:29:41;8.98;;;2.00;;
37805;SDS011;25082;50.870;0.022;2023-07-24T14:32:07;2.30;;;1.52;;
37805;SDS011;25082;50.870;0.022;2023-07-24T14:34:33;4.40;;;1.52;;
37805;SDS011;25082;50.870;0.022;2023-07-24T14:36:58;5.35;;;1.50;;
37805;SDS011;25082;50.870;0.022;2023-07-24T14:39:24;4.25;;;1.55;;
37805;SDS011;25082;50.870;0.022;2023-07-24T14:41:50;5.95;;;1.60;;
37805;SDS011;25082;50.870;0.022;2023-07-24T14:44:16;1.77;;;1.40;;
37805;SDS011;25082;50.870;0.022;2023-07-24T14:46:42;2.38;;;1.30;;
37805;SDS011;25082;50.870;0.022;2023-07-24T14:49:08;3.92;;;1.10;;
37805;SDS011;25082;50.870;0.022;2023-07-24T14:51:34;1.98;;;1.42;;